createdAt,value
2018-06-09T00:00:27.965Z,87.40
2018-06-09T00:02:56.318Z,87.60
2018-06-09T00:05:24.674Z,87.70
2018-06-09T00:07:52.986Z,87.30
2018-06-09T00:10:21.354Z,87.60
2018-06-09T00:12:49.661Z,87.80
2018-06-09T00:15:18.040Z,87.50
2018-06-09T00:17:46.517Z,88.10
2018-06-09T00:20:14.914Z,88.20
2018-06-09T00:22:43.248Z,88.00
2018-06-09T00:25:11.614Z,88.60
2018-06-09T00:27:39.974Z,88.00
2018-06-09T00:30:08.288Z,88.90
2018-06-09T00:32:36.767Z,87.60
2018-06-09T00:35:05.999Z,88.00
2018-06-09T00:37:34.338Z,88.50
2018-06-09T00:40:02.869Z,88.80
2018-06-09T00:42:31.227Z,88.50
2018-06-09T00:44:59.545Z,88.00
2018-06-09T00:49:56.636Z,88.80
2018-06-09T00:52:24.983Z,88.70
2018-06-09T00:54:53.491Z,90.00
2018-06-09T00:57:21.882Z,90.30
2018-06-09T00:59:50.267Z,90.20
2018-06-09T01:02:18.641Z,90.10
2018-06-09T01:04:46.953Z,89.70
2018-06-09T01:07:15.301Z,89.50
2018-06-09T01:09:43.707Z,89.30
2018-06-09T01:12:12.037Z,89.30
2018-06-09T01:14:40.387Z,89.20
2018-06-09T01:17:08.765Z,90.30
2018-06-09T01:19:37.132Z,90.40
2018-06-09T01:22:05.598Z,90.30
2018-06-09T01:24:33.960Z,90.30
2018-06-09T01:27:02.329Z,90.50
2018-06-09T01:29:30.687Z,90.60
2018-06-09T01:31:59.041Z,90.30
2018-06-09T01:34:27.380Z,90.40
2018-06-09T01:39:23.910Z,90.00
2018-06-09T01:41:53.405Z,90.20
2018-06-09T01:44:21.808Z,90.30
2018-06-09T01:46:50.188Z,90.20
2018-06-09T01:49:18.615Z,90.40
2018-06-09T01:51:47.007Z,90.50
2018-06-09T01:54:15.407Z,90.40
2018-06-09T01:56:43.788Z,90.80
2018-06-09T01:59:12.113Z,90.30
2018-06-09T02:01:40.476Z,90.40
2018-06-09T02:04:08.786Z,90.60
2018-06-09T02:06:37.163Z,90.70
2018-06-09T02:09:08.480Z,90.70
2018-06-09T02:11:36.807Z,90.60
2018-06-09T02:14:05.227Z,90.80
2018-06-09T02:16:33.610Z,91.00
2018-06-09T02:19:01.927Z,90.90
2018-06-09T02:21:30.287Z,91.00
2018-06-09T02:23:58.695Z,90.80
2018-06-09T02:26:27.063Z,90.80
2018-06-09T02:28:55.419Z,90.60
2018-06-09T02:31:23.816Z,90.70
2018-06-09T02:33:52.136Z,90.40
2018-06-09T02:38:48.704Z,90.30
2018-06-09T02:41:18.014Z,90.50
2018-06-09T02:43:46.397Z,90.40
2018-06-09T02:46:14.788Z,90.30
2018-06-09T02:48:43.103Z,89.60
2018-06-09T02:51:11.472Z,90.20
2018-06-09T02:53:39.980Z,90.30
2018-06-09T02:56:08.366Z,90.60
2018-06-09T02:58:36.688Z,90.70
2018-06-09T03:01:05.104Z,90.40
2018-06-09T03:03:33.460Z,90.30
2018-06-09T03:06:01.839Z,90.40
2018-06-09T03:08:30.271Z,89.70
2018-06-09T03:10:58.616Z,90.00
2018-06-09T03:13:26.980Z,90.40
2018-06-09T03:15:55.405Z,90.20
2018-06-09T03:18:23.759Z,90.30
2018-06-09T03:20:52.163Z,90.70
2018-06-09T03:23:20.533Z,90.60
2018-06-09T03:25:48.996Z,90.00
2018-06-09T03:28:17.384Z,90.10
2018-06-09T03:30:45.732Z,90.30
2018-06-09T03:33:14.060Z,90.50
2018-06-09T03:35:42.395Z,90.00
2018-06-09T03:38:10.751Z,90.30
2018-06-09T03:40:39.099Z,90.20
2018-06-09T03:43:07.445Z,90.30
2018-06-09T03:45:35.964Z,90.00
2018-06-09T03:48:04.691Z,90.10
2018-06-09T03:50:33.023Z,90.20
2018-06-09T03:53:01.375Z,90.50
2018-06-09T03:55:29.746Z,90.10
2018-06-09T03:57:58.071Z,89.40
2018-06-09T04:00:26.466Z,89.90
2018-06-09T04:02:54.803Z,89.70
2018-06-09T04:05:24.008Z,90.00
2018-06-09T04:07:52.724Z,90.00
2018-06-09T04:10:21.058Z,89.60
2018-06-09T04:12:49.391Z,89.20
2018-06-09T04:15:17.858Z,89.50
2018-06-09T04:17:46.181Z,89.50
2018-06-09T04:20:14.493Z,89.00
2018-06-09T04:22:42.893Z,88.80
2018-06-09T04:25:11.261Z,89.70
2018-06-09T04:27:39.626Z,88.00
2018-06-09T04:30:08.109Z,89.00
2018-06-09T04:32:36.429Z,89.90
2018-06-09T04:35:04.826Z,89.40
2018-06-09T04:37:33.481Z,88.50
2018-06-09T04:40:01.800Z,88.60
2018-06-09T04:42:30.105Z,87.20
2018-06-09T04:44:58.558Z,87.50
2018-06-09T04:47:26.886Z,88.30
2018-06-09T04:49:55.210Z,87.70
2018-06-09T04:52:23.542Z,88.10
2018-06-09T04:54:51.840Z,88.70
2018-06-09T04:57:20.678Z,88.00
2018-06-09T04:59:49.049Z,87.70
2018-06-09T05:02:17.392Z,87.40
2018-06-09T05:04:45.704Z,87.50
2018-06-09T05:07:14.173Z,87.10
2018-06-09T05:09:42.508Z,86.70
2018-06-09T05:19:35.033Z,86.40
2018-06-09T05:24:31.457Z,86.70
2018-06-09T05:26:59.904Z,85.40
2018-06-09T05:29:28.493Z,85.50
2018-06-09T05:31:56.894Z,85.80
2018-06-09T05:34:25.277Z,86.00
2018-06-09T05:36:53.637Z,85.10
2018-06-09T05:39:21.977Z,85.70
2018-06-09T05:41:50.326Z,85.40
2018-06-09T05:44:18.707Z,86.00
2018-06-09T05:46:47.061Z,85.40
2018-06-09T05:49:15.448Z,85.10
2018-06-09T05:51:43.790Z,85.30
2018-06-09T05:54:12.196Z,84.30
2018-06-09T05:56:40.513Z,84.10
2018-06-09T05:59:08.885Z,84.00
2018-06-09T06:01:37.216Z,84.00
2018-06-09T06:04:05.531Z,83.90
2018-06-09T06:06:33.998Z,83.80
2018-06-09T06:09:02.340Z,83.40
2018-06-09T06:11:30.727Z,82.20
2018-06-09T06:13:59.091Z,82.30
2018-06-09T06:16:27.446Z,82.30
2018-06-09T06:18:55.821Z,81.60
2018-06-09T06:21:24.201Z,83.00
2018-06-09T06:23:52.532Z,82.20
2018-06-09T06:26:20.882Z,81.80
2018-06-09T06:28:49.281Z,82.00
2018-06-09T06:31:17.685Z,81.90
2018-06-09T06:33:46.053Z,80.50
2018-06-09T06:36:14.621Z,81.60
2018-06-09T06:38:42.989Z,82.00
2018-06-09T06:41:11.418Z,80.20
2018-06-09T06:43:39.885Z,80.20
2018-06-09T06:46:08.213Z,80.10
2018-06-09T06:48:36.585Z,79.90
2018-06-09T06:51:05.143Z,77.70
2018-06-09T06:53:33.498Z,77.90
2018-06-09T06:56:01.824Z,75.20
2018-06-09T06:58:30.244Z,76.20
2018-06-09T07:05:54.774Z,73.10
2018-06-09T07:10:51.226Z,72.20
2018-06-09T07:13:19.553Z,71.00
2018-06-09T07:15:47.873Z,71.40
2018-06-09T07:18:16.257Z,73.40
2018-06-09T07:20:44.785Z,72.20
2018-06-09T07:23:13.126Z,70.60
2018-06-09T07:25:41.423Z,70.10
2018-06-09T07:28:09.826Z,71.30
2018-06-09T07:30:38.168Z,72.50
2018-06-09T07:33:06.623Z,69.20
2018-06-09T07:35:34.979Z,70.50
2018-06-09T07:38:03.283Z,69.50
2018-06-09T07:40:31.628Z,69.20
2018-06-09T07:42:59.969Z,68.90
2018-06-09T07:45:28.293Z,66.50
2018-06-09T07:47:56.611Z,67.90
2018-06-09T07:55:21.059Z,71.60
2018-06-09T07:57:49.549Z,69.30
2018-06-09T08:00:17.878Z,69.70
2018-06-09T08:02:46.165Z,68.70
2018-06-09T08:05:14.569Z,71.40
2018-06-09T08:07:42.884Z,70.30
2018-06-09T08:10:11.793Z,72.00
2018-06-09T08:12:40.195Z,68.50
2018-06-09T08:15:08.574Z,69.50
2018-06-09T08:17:36.898Z,68.20
2018-06-09T08:20:06.268Z,65.60
2018-06-09T08:25:02.658Z,65.10
2018-06-09T08:27:31.257Z,66.00
2018-06-09T08:29:59.583Z,67.80
2018-06-09T08:32:27.861Z,67.00
2018-06-09T08:34:56.266Z,65.10
2018-06-09T08:37:24.609Z,67.10
2018-06-09T08:39:52.952Z,66.80
2018-06-09T08:42:21.530Z,65.10
2018-06-09T08:44:49.850Z,64.40
2018-06-09T08:47:18.201Z,66.70
2018-06-09T08:49:46.672Z,66.30
2018-06-09T08:52:15.010Z,64.60
2018-06-09T08:54:43.354Z,62.80
2018-06-09T08:57:11.861Z,62.30
2018-06-09T08:59:40.163Z,61.70
2018-06-09T09:02:08.527Z,63.50
2018-06-09T09:04:36.904Z,63.00
2018-06-09T09:07:05.269Z,61.20
2018-06-09T09:09:33.621Z,63.00
2018-06-09T09:12:02.479Z,62.00
2018-06-09T09:14:30.798Z,60.80
2018-06-09T09:16:59.185Z,61.90
2018-06-09T09:19:27.629Z,62.90
2018-06-09T09:21:56.018Z,60.30
2018-06-09T09:24:24.434Z,60.70
2018-06-09T09:29:20.795Z,60.20
2018-06-09T09:31:49.104Z,57.80
2018-06-09T09:34:17.481Z,59.40
2018-06-09T09:36:46.847Z,58.00
2018-06-09T09:41:43.253Z,56.20
2018-06-09T09:44:11.585Z,56.30
2018-06-09T09:46:39.916Z,57.20
2018-06-09T09:49:08.454Z,58.40
2018-06-09T09:51:36.758Z,58.10
2018-06-09T09:54:05.189Z,58.10
2018-06-09T09:59:01.797Z,58.10
2018-06-09T10:01:30.182Z,57.40
2018-06-09T10:03:58.501Z,56.00
2018-06-09T10:06:26.816Z,57.10
2018-06-09T10:08:55.114Z,57.40
2018-06-09T10:11:23.449Z,58.70
2018-06-09T10:13:51.805Z,58.20
2018-06-09T10:16:20.141Z,56.20
2018-06-09T10:18:48.545Z,57.00
2018-06-09T10:21:16.883Z,54.30
2018-06-09T10:23:45.190Z,55.60
2018-06-09T10:26:13.632Z,55.80
2018-06-09T10:28:41.929Z,54.00
2018-06-09T10:31:10.311Z,57.70
2018-06-09T10:33:38.758Z,54.10
2018-06-09T10:36:07.210Z,56.60
2018-06-09T10:38:36.905Z,55.50
2018-06-09T10:41:05.273Z,55.30
2018-06-09T10:43:33.638Z,54.20
2018-06-09T10:46:01.972Z,56.30
2018-06-09T10:48:30.301Z,54.60
2018-06-09T10:50:58.661Z,54.50
2018-06-09T10:53:26.996Z,54.10
2018-06-09T10:55:55.437Z,54.30
2018-06-09T10:58:23.799Z,53.80
2018-06-09T11:00:52.094Z,54.50
2018-06-09T11:03:20.642Z,54.50
2018-06-09T11:05:48.958Z,54.30
2018-06-09T11:08:17.341Z,54.10
2018-06-09T11:10:45.769Z,53.20
2018-06-09T11:13:14.176Z,52.70
2018-06-09T11:15:42.461Z,55.00
2018-06-09T11:18:10.908Z,55.70
2018-06-09T11:20:39.480Z,53.60
2018-06-09T11:23:07.814Z,52.50
2018-06-09T11:25:36.371Z,53.70
2018-06-09T11:28:04.726Z,53.50
2018-06-09T11:30:33.110Z,52.00
2018-06-09T11:33:01.828Z,52.50
2018-06-09T11:35:30.140Z,53.90
2018-06-09T11:37:58.493Z,54.90
2018-06-09T11:40:27.025Z,54.30
2018-06-09T11:42:55.373Z,54.80
2018-06-09T11:45:23.785Z,53.30
2018-06-09T11:47:52.154Z,54.00
2018-06-09T11:50:20.478Z,53.20
2018-06-09T11:52:48.794Z,52.40
2018-06-09T11:55:17.181Z,53.10
2018-06-09T11:57:45.506Z,53.90
2018-06-09T12:00:13.894Z,52.50
2018-06-09T12:02:42.373Z,52.70
2018-06-09T12:05:10.754Z,54.30
2018-06-09T12:07:39.074Z,51.80
2018-06-09T12:10:07.829Z,52.50
2018-06-09T12:12:36.146Z,52.80
2018-06-09T12:15:04.584Z,53.00
2018-06-09T12:17:32.991Z,51.20
2018-06-09T12:20:01.629Z,50.70
2018-06-09T12:22:30.412Z,50.30
2018-06-09T12:24:58.973Z,50.80
2018-06-09T12:27:27.976Z,51.20
2018-06-09T12:29:56.304Z,52.20
2018-06-09T12:32:24.826Z,52.50
2018-06-09T12:34:53.157Z,54.10
2018-06-09T12:37:21.477Z,50.50
2018-06-09T12:39:49.981Z,51.40
2018-06-09T12:42:18.445Z,51.50
2018-06-09T12:44:46.794Z,51.70
2018-06-09T12:47:15.251Z,51.30
2018-06-09T12:49:43.569Z,52.50
2018-06-09T12:52:11.911Z,49.00
2018-06-09T12:54:40.721Z,50.90
2018-06-09T12:57:09.041Z,51.90
2018-06-09T12:59:37.419Z,53.40
2018-06-09T13:02:05.756Z,53.30
2018-06-09T13:04:34.049Z,52.40
2018-06-09T13:07:02.374Z,51.40
2018-06-09T13:09:30.765Z,54.60
2018-06-09T13:11:59.094Z,53.60
2018-06-09T13:14:27.431Z,52.20
2018-06-09T13:16:56.140Z,50.60
2018-06-09T13:19:24.556Z,52.90
2018-06-09T13:21:52.967Z,56.00
2018-06-09T13:24:21.439Z,51.40
2018-06-09T13:26:49.782Z,54.00
2018-06-09T13:31:47.730Z,52.40
2018-06-09T13:34:16.074Z,54.10
2018-06-09T13:36:44.425Z,51.30
2018-06-09T13:39:12.805Z,50.70
2018-06-09T13:41:41.143Z,52.80
2018-06-09T13:44:09.604Z,52.50
2018-06-09T13:46:37.996Z,53.60
2018-06-09T13:49:06.352Z,54.50
2018-06-09T13:51:35.039Z,53.70
2018-06-09T13:54:03.825Z,56.10
2018-06-09T13:56:32.151Z,54.60
2018-06-09T13:59:00.628Z,54.30
2018-06-09T14:01:29.031Z,51.90
2018-06-09T14:03:57.358Z,52.10
2018-06-09T14:06:25.805Z,54.00
2018-06-09T14:08:54.145Z,54.40
2018-06-09T14:11:22.445Z,54.70
2018-06-09T14:13:50.789Z,55.40
2018-06-09T14:16:19.114Z,56.80
2018-06-09T14:18:47.437Z,57.30
2018-06-09T14:21:15.758Z,58.00
2018-06-09T14:23:44.167Z,59.60
2018-06-09T14:26:12.479Z,59.70
2018-06-09T14:28:40.836Z,59.80
2018-06-09T14:31:09.237Z,58.30
2018-06-09T14:33:37.653Z,58.00
2018-06-09T14:36:05.962Z,58.90
2018-06-09T14:38:34.452Z,58.30
2018-06-09T14:41:02.780Z,57.70
2018-06-09T14:43:31.136Z,57.10
2018-06-09T14:45:59.633Z,57.70
2018-06-09T14:48:28.584Z,56.20
2018-06-09T14:50:56.924Z,57.10
2018-06-09T14:53:26.205Z,58.50
2018-06-09T14:55:54.578Z,56.90
2018-06-09T14:58:22.945Z,56.20
2018-06-09T15:00:51.366Z,57.40
2018-06-09T15:05:47.808Z,58.00
2018-06-09T15:08:16.238Z,58.10
2018-06-09T15:10:44.675Z,58.30
2018-06-09T15:13:13.051Z,57.10
2018-06-09T15:15:41.464Z,58.10
2018-06-09T15:18:09.857Z,57.10
2018-06-09T15:20:38.229Z,57.50
2018-06-09T15:23:06.758Z,58.40
2018-06-09T15:25:35.092Z,58.00
2018-06-09T15:28:03.395Z,57.80
2018-06-09T15:30:31.893Z,58.20
2018-06-09T15:33:00.618Z,58.40
2018-06-09T15:35:28.994Z,57.80
2018-06-09T15:37:57.465Z,57.50
2018-06-09T15:40:25.809Z,59.30
2018-06-09T15:42:54.117Z,58.60
2018-06-09T15:45:22.487Z,59.10
2018-06-09T15:47:51.042Z,58.10
2018-06-09T15:50:19.350Z,58.70
2018-06-09T15:52:47.749Z,59.20
2018-06-09T15:55:16.226Z,59.40
2018-06-09T16:00:12.719Z,59.60
2018-06-09T16:02:41.057Z,60.30
2018-06-09T16:07:37.725Z,60.90
2018-06-09T16:10:06.165Z,60.60
2018-06-09T16:12:34.445Z,61.60
2018-06-09T16:15:02.884Z,61.40
2018-06-09T16:17:31.181Z,60.80
2018-06-09T16:19:59.522Z,60.90
2018-06-09T16:22:28.051Z,62.00
2018-06-09T16:24:56.390Z,62.40
2018-06-09T16:27:25.381Z,62.20
2018-06-09T16:29:53.761Z,62.50
2018-06-09T16:32:22.146Z,62.80
2018-06-09T16:34:50.564Z,63.50
2018-06-09T16:37:18.880Z,62.10
2018-06-09T16:39:47.244Z,62.70
2018-06-09T16:42:15.629Z,63.10
2018-06-09T16:44:43.974Z,62.80
2018-06-09T16:47:12.408Z,63.40
2018-06-09T16:52:33.004Z,63.90
